createdAt,value
2022-12-04T00:01:24.899Z,101413.19
2022-12-04T00:03:54.626Z,101420.94
2022-12-04T00:06:23.226Z,101415.69
2022-12-04T00:08:52.339Z,101414.75
2022-12-04T00:11:24.412Z,101412.25
2022-12-04T00:13:54.147Z,101411.34
2022-12-04T00:16:26.440Z,101392.13
2022-12-04T00:18:57.415Z,101396.66
2022-12-04T00:21:26.783Z,101397.44
2022-12-04T00:23:55.438Z,101398.22
2022-12-04T00:26:27.969Z,101398.38
2022-12-04T00:29:01.324Z,101395.69
2022-12-04T00:31:31.448Z,101394.84
2022-12-04T00:34:00.559Z,101399.28
2022-12-04T00:36:30.064Z,101401.00
2022-12-04T00:39:00.361Z,101404.50
2022-12-04T00:41:29.875Z,101406.91
2022-12-04T00:43:58.173Z,101393.94
2022-12-04T00:46:28.346Z,101396.53
2022-12-04T00:48:56.674Z,101397.47
2022-12-04T00:51:26.209Z,101392.25
2022-12-04T00:53:54.326Z,101391.34
2022-12-04T00:56:24.914Z,101395.75
2022-12-04T00:58:54.159Z,101386.13
2022-12-04T01:01:23.495Z,101398.31
2022-12-04T01:03:53.315Z,101385.44
2022-12-04T01:06:23.588Z,101389.63
2022-12-04T01:08:53.289Z,101383.53
2022-12-04T01:11:22.349Z,101379.88
2022-12-04T01:13:50.596Z,101392.22
2022-12-04T01:16:20.462Z,101396.63
2022-12-04T01:18:48.713Z,101389.63
2022-12-04T01:21:18.590Z,101389.72
2022-12-04T01:23:46.579Z,101386.19
2022-12-04T01:26:14.911Z,101388.84
2022-12-04T01:28:42.898Z,101382.75
2022-12-04T01:31:13.191Z,101384.38
2022-12-04T01:33:42.506Z,101383.47
2022-12-04T01:36:13.644Z,101380.00
2022-12-04T01:38:43.451Z,101374.78
2022-12-04T01:41:13.129Z,101373.06
2022-12-04T01:43:42.010Z,101368.81
2022-12-04T01:46:12.025Z,101374.78
2022-12-04T01:48:45.543Z,101378.16
2022-12-04T01:51:17.804Z,101368.72
2022-12-04T01:53:52.601Z,101367.00
2022-12-04T01:56:22.556Z,101376.59
2022-12-04T01:58:55.473Z,101380.97
2022-12-04T02:01:23.897Z,101368.75
2022-12-04T02:03:51.840Z,101371.31
2022-12-04T02:06:19.968Z,101378.38
2022-12-04T02:08:49.356Z,101374.78
2022-12-04T02:11:28.064Z,101373.81
2022-12-04T02:14:08.743Z,101372.28
2022-12-04T02:16:44.716Z,101310.78
2022-12-04T02:19:34.449Z,101358.28
2022-12-04T02:22:11.077Z,101359.13
2022-12-04T02:24:53.736Z,101368.81
2022-12-04T02:27:35.550Z,101335.31
2022-12-04T02:30:07.836Z,101361.84
2022-12-04T02:32:43.433Z,101358.34
2022-12-04T02:35:17.460Z,101349.69
2022-12-04T02:37:53.140Z,101344.41
2022-12-04T02:40:26.688Z,101345.25
2022-12-04T02:42:59.391Z,101351.47
2022-12-04T02:45:33.249Z,101358.44
2022-12-04T02:48:04.079Z,101341.91
2022-12-04T02:50:35.379Z,101345.38
2022-12-04T02:53:09.745Z,101342.88
2022-12-04T02:55:43.193Z,101346.97
2022-12-04T02:58:15.733Z,101335.69
2022-12-04T03:00:48.457Z,101341.88
2022-12-04T03:03:21.542Z,101344.47
2022-12-04T03:05:56.430Z,101338.41
2022-12-04T03:08:29.901Z,101343.69
2022-12-04T03:11:01.335Z,101337.56
2022-12-04T03:13:34.014Z,101343.72
2022-12-04T03:16:08.402Z,101346.25
2022-12-04T03:18:41.314Z,101342.78
2022-12-04T03:21:12.634Z,101345.41
2022-12-04T03:23:47.365Z,101342.84
2022-12-04T03:26:24.864Z,101342.78
2022-12-04T03:28:58.976Z,101342.84
2022-12-04T03:31:39.231Z,101334.19
2022-12-04T03:34:09.633Z,101338.50
2022-12-04T03:36:40.691Z,101328.81
2022-12-04T03:39:18.936Z,101342.88
2022-12-04T03:41:58.513Z,101332.38
2022-12-04T03:44:32.962Z,101330.72
2022-12-04T03:47:07.389Z,101322.88
2022-12-04T03:49:43.896Z,101328.94
2022-12-04T03:52:18.122Z,101335.94
2022-12-04T03:54:50.419Z,101330.66
2022-12-04T03:57:22.150Z,101328.94
2022-12-04T03:59:56.126Z,101320.22
2022-12-04T04:02:29.469Z,101328.13
2022-12-04T04:05:00.822Z,101318.50
2022-12-04T04:07:35.748Z,101333.34
2022-12-04T04:10:08.832Z,101332.47
2022-12-04T04:12:39.930Z,101343.78
2022-12-04T04:15:30.559Z,101336.84
2022-12-04T04:18:19.856Z,101337.72
2022-12-04T04:21:08.858Z,101323.84
2022-12-04T04:23:59.187Z,101336.84
2022-12-04T04:26:30.286Z,101327.25
2022-12-04T04:28:58.226Z,101329.00
2022-12-04T04:31:27.508Z,101330.84
2022-12-04T04:34:04.166Z,101337.88
2022-12-04T04:36:39.336Z,101342.25
2022-12-04T04:39:16.601Z,101328.28
2022-12-04T04:41:51.859Z,101336.16
2022-12-04T04:44:28.929Z,101336.16
2022-12-04T04:47:01.528Z,101325.69
2022-12-04T04:49:33.542Z,101323.94
2022-12-04T04:52:02.087Z,101331.00
2022-12-04T04:54:32.036Z,101324.91
2022-12-04T04:57:00.005Z,101332.75
2022-12-04T04:59:27.986Z,101336.19
2022-12-04T05:01:55.977Z,101342.31
2022-12-04T05:04:24.092Z,101331.91
2022-12-04T05:06:53.289Z,101330.06
2022-12-04T05:09:21.234Z,101322.34
2022-12-04T05:11:49.221Z,101336.28
2022-12-04T05:14:16.902Z,101338.09
2022-12-04T05:16:44.811Z,101352.78
2022-12-04T05:19:35.469Z,101344.09
2022-12-04T05:22:04.741Z,101341.59
2022-12-04T05:24:32.588Z,101342.47
2022-12-04T05:27:00.301Z,101340.72
2022-12-04T05:29:32.767Z,101333.75
2022-12-04T05:32:03.680Z,101339.81
2022-12-04T05:34:31.656Z,101345.97
2022-12-04T05:36:59.673Z,101343.41
2022-12-04T05:39:28.974Z,101338.16
2022-12-04T05:41:56.897Z,101341.69
2022-12-04T05:44:24.868Z,101311.00
2022-12-04T05:46:54.818Z,101332.88
2022-12-04T05:49:22.740Z,101335.47
2022-12-04T05:51:51.088Z,101344.13
2022-12-04T05:54:19.576Z,101322.28
2022-12-04T05:56:49.247Z,101342.53
2022-12-04T05:59:17.841Z,101329.38
2022-12-04T06:01:46.038Z,101345.03
2022-12-04T06:04:14.083Z,101342.53
2022-12-04T06:06:42.148Z,101339.88
2022-12-04T06:09:10.287Z,101338.16
2022-12-04T06:11:40.032Z,101347.75
2022-12-04T06:14:12.626Z,101340.72
2022-12-04T06:16:43.341Z,101349.44
2022-12-04T06:19:13.830Z,101343.41
2022-12-04T06:21:43.547Z,101346.00
2022-12-04T06:24:14.681Z,101349.50
2022-12-04T06:27:03.864Z,101346.88
2022-12-04T06:29:32.140Z,101346.88
2022-12-04T06:32:00.628Z,101349.44
2022-12-04T06:34:29.608Z,101324.00
2022-12-04T06:36:57.569Z,101348.63
2022-12-04T06:39:25.499Z,101345.94
2022-12-04T06:41:53.385Z,101338.09
2022-12-04T06:44:21.478Z,101346.00
2022-12-04T06:46:50.745Z,101345.97
2022-12-04T06:49:22.605Z,101355.56
2022-12-04T06:51:50.620Z,101352.09
2022-12-04T06:54:18.708Z,101353.00
2022-12-04T06:56:46.628Z,101361.69
2022-12-04T06:59:14.709Z,101362.56
2022-12-04T07:01:42.743Z,101362.56
2022-12-04T07:04:12.268Z,101360.78
2022-12-04T07:06:40.861Z,101353.81
2022-12-04T07:09:11.138Z,101359.16
2022-12-04T07:11:40.414Z,101364.38
2022-12-04T07:14:08.981Z,101366.03
2022-12-04T07:16:41.040Z,101360.78
2022-12-04T07:19:10.201Z,101377.41
2022-12-04T07:21:39.551Z,101371.38
2022-12-04T07:24:07.869Z,101371.31
2022-12-04T07:26:35.913Z,101368.63
2022-12-04T07:29:03.988Z,101352.19
2022-12-04T07:31:32.002Z,101362.63
2022-12-04T07:34:00.064Z,101360.09
2022-12-04T07:36:28.746Z,101362.63
2022-12-04T07:38:58.310Z,101355.69
2022-12-04T07:41:26.362Z,101357.47
2022-12-04T07:43:55.218Z,101353.06
2022-12-04T07:46:25.626Z,101354.03
2022-12-04T07:48:55.575Z,101354.84
2022-12-04T07:51:25.767Z,101361.88
2022-12-04T07:53:54.890Z,101360.97
2022-12-04T07:56:24.273Z,101361.00
2022-12-04T07:58:52.194Z,101356.59
2022-12-04T08:01:22.760Z,101361.88
2022-12-04T08:03:53.211Z,101357.50
2022-12-04T08:06:22.814Z,101364.47
2022-12-04T08:08:51.478Z,101362.69
2022-12-04T08:11:22.225Z,101360.09
2022-12-04T08:13:55.622Z,101348.78
2022-12-04T08:16:23.935Z,101354.00
2022-12-04T08:18:52.173Z,101360.97
2022-12-04T08:21:23.220Z,101359.22
2022-12-04T08:23:53.228Z,101362.69
2022-12-04T08:26:22.109Z,101362.78
2022-12-04T08:28:53.606Z,101361.03
2022-12-04T08:31:24.027Z,101365.41
2022-12-04T08:33:55.150Z,101367.09
2022-12-04T08:36:23.358Z,101354.84
2022-12-04T08:38:52.331Z,101362.78
2022-12-04T08:41:24.074Z,101360.19
2022-12-04T08:43:55.444Z,101347.91
2022-12-04T08:46:24.907Z,101362.00
2022-12-04T08:48:52.958Z,101356.69
2022-12-04T08:51:22.891Z,101350.63
2022-12-04T08:53:54.616Z,101354.13
2022-12-04T08:56:22.710Z,101361.94
2022-12-04T08:58:50.592Z,101355.88
2022-12-04T09:01:20.125Z,101356.69
2022-12-04T09:03:48.088Z,101359.34
2022-12-04T09:06:16.920Z,101343.53
2022-12-04T09:08:45.576Z,101357.63
2022-12-04T09:11:16.092Z,101339.25
2022-12-04T09:13:44.827Z,101352.41
2022-12-04T09:16:15.277Z,101349.84
2022-12-04T09:18:45.317Z,101350.56
2022-12-04T09:21:16.862Z,101360.25
2022-12-04T09:23:45.499Z,101362.06
2022-12-04T09:26:23.098Z,101365.53
2022-12-04T09:28:52.361Z,101370.75
2022-12-04T09:31:21.151Z,101371.63
2022-12-04T09:33:50.728Z,101373.22
2022-12-04T09:36:18.727Z,101350.50
2022-12-04T09:38:47.965Z,101364.53
2022-12-04T09:41:30.589Z,101364.56
2022-12-04T09:44:03.636Z,101363.75
2022-12-04T09:46:37.449Z,101363.81
2022-12-04T09:49:15.522Z,101367.31
2022-12-04T09:51:44.025Z,101344.56
2022-12-04T09:54:16.974Z,101347.22
2022-12-04T09:56:46.555Z,101360.28
2022-12-04T09:59:18.383Z,101369.09
2022-12-04T10:01:49.573Z,101360.34
2022-12-04T10:04:20.511Z,101359.47
2022-12-04T10:06:57.192Z,101356.94
2022-12-04T10:09:32.699Z,101355.19
2022-12-04T10:12:13.569Z,101352.50
2022-12-04T10:14:56.219Z,101348.22
2022-12-04T10:17:39.334Z,101350.81
2022-12-04T10:20:24.538Z,101352.47
2022-12-04T10:23:09.289Z,101341.06
2022-12-04T10:25:42.888Z,101348.22
2022-12-04T10:28:20.107Z,101342.13
2022-12-04T10:30:49.388Z,101342.97
2022-12-04T10:33:21.034Z,101340.34
2022-12-04T10:35:53.382Z,101344.75
2022-12-04T10:38:31.411Z,101342.13
2022-12-04T10:41:03.717Z,101335.13
2022-12-04T10:43:37.357Z,101339.50
2022-12-04T10:46:06.697Z,101340.28
2022-12-04T10:48:39.652Z,101337.72
2022-12-04T10:51:15.197Z,101342.03
2022-12-04T10:53:43.367Z,101344.66
2022-12-04T10:56:13.094Z,101338.66
2022-12-04T10:58:41.340Z,101334.34
2022-12-04T11:01:12.571Z,101337.78
2022-12-04T11:03:41.453Z,101342.91
2022-12-04T11:06:11.780Z,101337.78
2022-12-04T11:08:42.636Z,101329.97
2022-12-04T11:11:13.537Z,101334.31
2022-12-04T11:13:42.410Z,101332.59
2022-12-04T11:16:30.546Z,101328.28
2022-12-04T11:18:58.578Z,101312.47
2022-12-04T11:21:31.675Z,101316.88
2022-12-04T11:23:59.691Z,101318.63
2022-12-04T11:26:32.600Z,101308.09
2022-12-04T11:29:02.412Z,101305.47
2022-12-04T11:31:31.385Z,101308.16
2022-12-04T11:34:02.617Z,101309.00
2022-12-04T11:36:35.837Z,101307.28
2022-12-04T11:39:08.338Z,101300.31
2022-12-04T11:41:36.246Z,101305.53
2022-12-04T11:44:07.181Z,101281.97
2022-12-04T11:46:36.030Z,101303.03
2022-12-04T11:49:04.396Z,101294.28
2022-12-04T11:51:48.561Z,101293.44
2022-12-04T11:54:29.910Z,101293.44
2022-12-04T11:57:09.584Z,101300.41
2022-12-04T11:59:51.253Z,101303.03
2022-12-04T12:02:45.394Z,101296.88
2022-12-04T12:05:25.498Z,101301.28
2022-12-04T12:08:06.861Z,101294.34
2022-12-04T12:10:44.759Z,101289.91
2022-12-04T12:13:22.231Z,101292.56
2022-12-04T12:15:59.411Z,101299.47
2022-12-04T12:18:47.419Z,101271.50
2022-12-04T12:21:23.048Z,101293.41
2022-12-04T12:24:05.489Z,101286.44
2022-12-04T12:26:46.212Z,101292.56
2022-12-04T12:29:24.364Z,101293.38
2022-12-04T12:32:14.622Z,101289.00
2022-12-04T12:34:44.962Z,101295.97
2022-12-04T12:37:22.187Z,101287.25
2022-12-04T12:40:01.040Z,101296.91
2022-12-04T12:42:33.743Z,101293.44
2022-12-04T12:45:08.567Z,101286.47
2022-12-04T12:47:41.771Z,101277.78
2022-12-04T12:50:16.441Z,101282.13
2022-12-04T12:52:53.445Z,101267.31
2022-12-04T12:55:26.642Z,101215.66
2022-12-04T12:58:02.794Z,101267.34
2022-12-04T13:00:34.793Z,101257.75
2022-12-04T13:03:05.800Z,101265.56
2022-12-04T13:05:38.786Z,101261.19
2022-12-04T13:08:16.430Z,101252.47
2022-12-04T13:10:48.993Z,101248.16
2022-12-04T13:13:25.940Z,101248.97
2022-12-04T13:15:57.881Z,101253.38
2022-12-04T13:18:28.903Z,101260.34
2022-12-04T13:21:02.641Z,101244.66
2022-12-04T13:23:50.553Z,101245.53
2022-12-04T13:26:49.495Z,101244.66
2022-12-04T13:29:31.376Z,101251.59
2022-12-04T13:32:09.505Z,101254.22
2022-12-04T13:34:47.664Z,101257.75
2022-12-04T13:37:49.416Z,101255.09
2022-12-04T13:40:33.457Z,101212.22
2022-12-04T13:43:28.701Z,101252.47
2022-12-04T13:45:59.177Z,101239.41
2022-12-04T13:48:37.518Z,101237.66
2022-12-04T13:51:22.389Z,101237.69
2022-12-04T13:54:02.664Z,101235.97
2022-12-04T13:56:32.338Z,101234.19
2022-12-04T13:59:04.137Z,101237.69
2022-12-04T14:01:38.640Z,101223.69
2022-12-04T14:04:07.810Z,101223.72
2022-12-04T14:06:39.373Z,101220.22
2022-12-04T14:09:19.519Z,101221.94
2022-12-04T14:11:52.094Z,101212.38
2022-12-04T14:14:27.916Z,101209.75
2022-12-04T14:16:57.810Z,101213.25
2022-12-04T14:19:35.591Z,101207.97
2022-12-04T14:22:04.296Z,101194.94
2022-12-04T14:24:38.761Z,101194.06
2022-12-04T14:27:33.156Z,101182.75
2022-12-04T14:30:03.603Z,101184.47
2022-12-04T14:32:35.049Z,101182.72
2022-12-04T14:35:03.400Z,101190.59
2022-12-04T14:37:38.773Z,101189.75
2022-12-04T14:40:15.877Z,101172.22
2022-12-04T14:42:43.827Z,101194.06
2022-12-04T14:45:26.559Z,101198.44
2022-12-04T14:48:09.657Z,101197.59
2022-12-04T14:50:47.127Z,101197.59
2022-12-04T14:53:24.783Z,101201.06
2022-12-04T14:56:05.928Z,101199.31
2022-12-04T14:58:38.933Z,101199.31
2022-12-04T15:01:28.403Z,101206.31
2022-12-04T15:04:00.078Z,101182.69
2022-12-04T15:06:30.548Z,101195.81
2022-12-04T15:09:16.253Z,101188.81
2022-12-04T15:12:05.094Z,101194.97
2022-12-04T15:14:41.820Z,101195.84
2022-12-04T15:17:12.950Z,101202.00
2022-12-04T15:19:41.330Z,101208.09
2022-12-04T15:22:14.183Z,101208.97
2022-12-04T15:24:42.311Z,101205.47
2022-12-04T15:27:12.378Z,101198.50
2022-12-04T15:29:48.083Z,101204.66
2022-12-04T15:32:20.461Z,101198.47
2022-12-04T15:34:52.613Z,101197.59
2022-12-04T15:37:23.650Z,101198.50
2022-12-04T15:39:52.804Z,101194.13
2022-12-04T15:42:27.540Z,101208.09
2022-12-04T15:45:00.958Z,101201.97
2022-12-04T15:47:32.886Z,101208.13
2022-12-04T15:50:09.770Z,101213.38
2022-12-04T15:52:38.413Z,101222.09
2022-12-04T15:55:09.016Z,101193.22
2022-12-04T15:57:39.571Z,101201.09
2022-12-04T16:00:23.263Z,101209.88
2022-12-04T16:02:52.850Z,101212.53
2022-12-04T16:05:36.461Z,101213.41
2022-12-04T16:08:23.692Z,101213.41
2022-12-04T16:11:00.643Z,101211.69
2022-12-04T16:13:32.420Z,101211.69
2022-12-04T16:16:01.130Z,101223.03
2022-12-04T16:18:30.625Z,101220.38
2022-12-04T16:20:58.678Z,101222.13
2022-12-04T16:23:27.181Z,101221.25
2022-12-04T16:25:55.133Z,101229.09
2022-12-04T16:28:23.084Z,101228.25
2022-12-04T16:30:52.618Z,101193.22
2022-12-04T16:33:20.947Z,101235.22
2022-12-04T16:35:50.485Z,101229.06
2022-12-04T16:38:18.844Z,101226.50
2022-12-04T16:40:48.443Z,101237.00
2022-12-04T16:43:18.074Z,101234.34
2022-12-04T16:45:48.183Z,101231.78
2022-12-04T16:48:16.256Z,101232.66
2022-12-04T16:50:44.953Z,101232.59
2022-12-04T16:53:19.922Z,101250.09
2022-12-04T16:55:50.194Z,101248.38
2022-12-04T16:58:19.337Z,101250.09
2022-12-04T17:00:52.905Z,101242.25
2022-12-04T17:03:25.412Z,101248.38
2022-12-04T17:05:53.426Z,101255.34
2022-12-04T17:08:23.324Z,101249.19
2022-12-04T17:10:51.748Z,101259.72
2022-12-04T17:13:20.407Z,101236.94
2022-12-04T17:15:48.861Z,101258.00
2022-12-04T17:18:21.071Z,101258.88
2022-12-04T17:20:50.144Z,101251.91
2022-12-04T17:23:18.125Z,101258.91
2022-12-04T17:25:47.473Z,101257.13
2022-12-04T17:28:15.676Z,101255.38
2022-12-04T17:30:46.086Z,101251.03
2022-12-04T17:33:15.264Z,101250.16
2022-12-04T17:35:44.516Z,101254.53
2022-12-04T17:38:12.535Z,101263.25
2022-12-04T17:40:40.721Z,101260.66
2022-12-04T17:43:10.066Z,101262.41
2022-12-04T17:45:40.859Z,101269.34
2022-12-04T17:48:08.802Z,101259.75
2022-12-04T17:50:36.753Z,101262.41
2022-12-04T17:53:04.685Z,101258.91
2022-12-04T17:55:32.664Z,101252.81
2022-12-04T17:58:00.658Z,101256.31
2022-12-04T18:00:29.983Z,101251.03
2022-12-04T18:02:58.112Z,101252.78
2022-12-04T18:05:26.120Z,101259.78
2022-12-04T18:07:54.102Z,101257.19
2022-12-04T18:10:22.195Z,101251.91
2022-12-04T18:12:50.129Z,101263.31
2022-12-04T18:15:18.065Z,101254.56
2022-12-04T18:17:47.413Z,101255.44
2022-12-04T18:20:15.496Z,101254.56
2022-12-04T18:22:46.278Z,101252.81
2022-12-04T18:25:14.370Z,101252.78
2022-12-04T18:27:42.550Z,101249.28
2022-12-04T18:30:11.858Z,101249.28
2022-12-04T18:32:39.925Z,101251.03
2022-12-04T18:35:10.032Z,101256.31
2022-12-04T18:37:38.010Z,101262.41
2022-12-04T18:40:07.853Z,101257.19
2022-12-04T18:42:36.060Z,101253.69
2022-12-04T18:45:04.447Z,101247.56
2022-12-04T18:47:32.531Z,101248.44
2022-12-04T18:50:00.769Z,101243.19
2022-12-04T18:52:30.253Z,101241.44
2022-12-04T18:54:58.240Z,101248.44
2022-12-04T18:57:26.252Z,101239.72
2022-12-04T18:59:54.715Z,101239.75
2022-12-04T19:02:23.089Z,101236.25
2022-12-04T19:04:51.336Z,101238.00
2022-12-04T19:07:19.695Z,101234.53
2022-12-04T19:12:37.135Z,101224.03
2022-12-04T19:15:05.784Z,101232.78
2022-12-04T19:17:33.762Z,101238.00
2022-12-04T19:20:01.768Z,101236.25
2022-12-04T19:22:30.529Z,101239.75
2022-12-04T19:24:59.923Z,101230.97
2022-12-04T19:27:27.928Z,101234.53
2022-12-04T19:29:56.247Z,101240.66
2022-12-04T19:32:25.116Z,101235.38
2022-12-04T19:34:53.196Z,101238.00
2022-12-04T19:37:21.115Z,101238.03
2022-12-04T19:39:49.029Z,101239.75
2022-12-04T19:42:18.361Z,101231.06
2022-12-04T19:44:49.134Z,101231.91
2022-12-04T19:47:18.571Z,101231.06
2022-12-04T19:49:46.675Z,101231.94
2022-12-04T19:52:14.890Z,101237.19
2022-12-04T19:54:43.134Z,101245.06
2022-12-04T19:57:11.154Z,101238.03
2022-12-04T19:59:45.753Z,101227.56
2022-12-04T20:02:15.116Z,101233.66
2022-12-04T20:04:43.568Z,101240.66
2022-12-04T20:07:11.544Z,101255.50
2022-12-04T20:09:39.672Z,101245.91
2022-12-04T20:12:08.125Z,101237.16
2022-12-04T20:14:36.281Z,101239.78
2022-12-04T20:17:05.699Z,101241.56
2022-12-04T20:19:33.810Z,101243.34
2022-12-04T20:22:01.791Z,101242.44
2022-12-04T20:24:29.778Z,101235.44
2022-12-04T20:26:57.855Z,101223.19
2022-12-04T20:29:25.918Z,101248.56
2022-12-04T20:31:53.952Z,101245.03
2022-12-04T20:34:23.366Z,101238.94
2022-12-04T20:36:51.346Z,101241.56
2022-12-04T20:39:20.684Z,101238.94
2022-12-04T20:41:49.131Z,101232.81
2022-12-04T20:44:19.235Z,101236.31
2022-12-04T20:46:47.385Z,101234.56
2022-12-04T20:49:22.105Z,101242.44
2022-12-04T20:51:53.221Z,101239.84
2022-12-04T20:54:23.203Z,101243.34
2022-12-04T20:56:53.098Z,101238.06
2022-12-04T20:59:23.260Z,101240.69
2022-12-04T21:01:52.483Z,101236.31
2022-12-04T21:04:21.195Z,101231.09
2022-12-04T21:06:49.165Z,101231.09
2022-12-04T21:09:22.532Z,101227.59
2022-12-04T21:11:52.477Z,101231.09
2022-12-04T21:14:40.272Z,101233.69
2022-12-04T21:17:16.624Z,101226.72
2022-12-04T21:19:44.644Z,101223.19
2022-12-04T21:22:12.624Z,101214.50
2022-12-04T21:24:42.194Z,101216.22
2022-12-04T21:27:13.371Z,101209.25
2022-12-04T21:29:45.246Z,101217.13
2022-12-04T21:32:13.206Z,101215.34
2022-12-04T21:34:41.127Z,101210.09
2022-12-04T21:37:09.020Z,101204.88
2022-12-04T21:39:39.024Z,101208.34
2022-12-04T21:42:25.556Z,101206.63
2022-12-04T21:44:53.541Z,101196.16
2022-12-04T21:47:21.440Z,101190.91
2022-12-04T21:49:49.490Z,101204.91
2022-12-04T21:52:18.099Z,101196.16
2022-12-04T21:54:49.145Z,101198.78
2022-12-04T21:57:19.161Z,101194.41
2022-12-04T21:59:47.427Z,101197.03
2022-12-04T22:02:16.399Z,101196.19
2022-12-04T22:04:44.358Z,101193.53
2022-12-04T22:07:12.783Z,101183.09
2022-12-04T22:09:40.683Z,101191.81
2022-12-04T22:14:58.342Z,101189.19
2022-12-04T22:17:30.435Z,101187.44
2022-12-04T22:19:58.631Z,101198.78
2022-12-04T22:22:26.839Z,101203.16
2022-12-04T22:24:54.738Z,101200.56
2022-12-04T22:27:22.737Z,101202.25
2022-12-04T22:30:02.212Z,101199.66
2022-12-04T22:32:33.490Z,101196.19
2022-12-04T22:35:01.392Z,101197.03
2022-12-04T22:37:29.333Z,101198.78
2022-12-04T22:39:57.583Z,101199.66
2022-12-04T22:42:25.892Z,101197.91
2022-12-04T22:44:53.886Z,101204.00
2022-12-04T22:47:21.794Z,101190.03
2022-12-04T22:49:51.107Z,101195.28
2022-12-04T22:52:19.924Z,101205.78
2022-12-04T22:54:47.820Z,101200.53
2022-12-04T22:57:15.749Z,101197.94
2022-12-04T22:59:43.719Z,101198.78
2022-12-04T23:02:12.965Z,101190.91
2022-12-04T23:04:41.013Z,101188.28
2022-12-04T23:07:10.488Z,101190.06
2022-12-04T23:09:39.153Z,101190.03
2022-12-04T23:12:07.713Z,101188.28
2022-12-04T23:14:36.762Z,101183.94
2022-12-04T23:17:04.826Z,101181.28
2022-12-04T23:19:32.883Z,101174.31
2022-12-04T23:22:00.801Z,101182.19
2022-12-04T23:24:30.212Z,101185.69
2022-12-04T23:26:58.193Z,101186.53
2022-12-04T23:32:14.075Z,101181.31
2022-12-04T23:34:41.938Z,101180.44
2022-12-04T23:37:09.842Z,101176.06
2022-12-04T23:39:39.224Z,101182.19
2022-12-04T23:42:07.163Z,101183.06
2022-12-04T23:44:35.061Z,101167.31
2022-12-04T23:47:03.046Z,101184.81
2022-12-04T23:49:31.014Z,101182.19
2022-12-04T23:51:58.951Z,101183.06
2022-12-04T23:54:27.257Z,101184.81
2022-12-04T23:56:56.530Z,101179.56
2022-12-04T23:59:24.391Z,101180.44
